createdAt,value
2022-11-06T00:01:36.716Z,9.57
2022-11-06T00:04:03.756Z,9.45
2022-11-06T00:06:49.285Z,10.18
2022-11-06T00:09:20.538Z,9.88
2022-11-06T00:11:49.266Z,9.63
2022-11-06T00:14:16.757Z,10.40
2022-11-06T00:16:44.988Z,14.52
2022-11-06T00:19:12.211Z,14.13
2022-11-06T00:21:39.625Z,14.07
2022-11-06T00:24:08.193Z,15.57
2022-11-06T00:26:36.115Z,15.38
2022-11-06T00:29:04.559Z,13.48
2022-11-06T00:31:36.161Z,14.77
2022-11-06T00:34:04.636Z,16.20
2022-11-06T00:36:31.780Z,15.52
2022-11-06T00:39:00.082Z,16.50
2022-11-06T00:41:27.763Z,17.00
2022-11-06T00:43:57.245Z,15.13
2022-11-06T00:46:24.676Z,16.40
2022-11-06T00:48:53.061Z,16.10
2022-11-06T00:51:28.815Z,16.52
2022-11-06T00:53:57.719Z,20.77
2022-11-06T00:56:25.261Z,16.42
2022-11-06T00:58:52.668Z,19.48
2022-11-06T01:01:24.337Z,16.10
2022-11-06T01:06:31.602Z,13.13
2022-11-06T01:08:59.191Z,12.73
2022-11-06T01:11:52.364Z,14.88
2022-11-06T01:14:21.549Z,15.27
2022-11-06T01:16:48.760Z,20.35
2022-11-06T01:19:17.263Z,21.02
2022-11-06T01:21:45.784Z,18.40
2022-11-06T01:24:26.901Z,22.13
2022-11-06T01:29:41.759Z,15.40
2022-11-06T01:32:08.705Z,12.93
2022-11-06T01:34:35.967Z,13.13
2022-11-06T01:37:02.866Z,12.73
2022-11-06T01:39:31.317Z,12.77
2022-11-06T01:41:58.387Z,12.90
2022-11-06T01:44:43.988Z,12.65
2022-11-06T01:47:28.298Z,12.75
2022-11-06T01:49:57.700Z,12.82
2022-11-06T01:52:26.068Z,13.20
2022-11-06T01:54:56.509Z,12.55
2022-11-06T01:57:23.641Z,12.75
2022-11-06T01:59:52.477Z,14.27
2022-11-06T02:02:19.743Z,14.70
2022-11-06T02:04:51.048Z,14.90
2022-11-06T02:07:18.632Z,15.60
2022-11-06T02:09:45.849Z,14.73
2022-11-06T02:12:50.520Z,14.43
2022-11-06T02:15:23.263Z,16.77
2022-11-06T02:18:12.324Z,18.52
2022-11-06T02:20:46.988Z,16.00
2022-11-06T02:23:32.601Z,15.07
2022-11-06T02:26:13.725Z,13.80
2022-11-06T02:28:56.280Z,13.90
2022-11-06T02:31:32.968Z,14.40
2022-11-06T02:34:05.067Z,13.85
2022-11-06T02:36:38.616Z,14.73
2022-11-06T02:39:10.706Z,16.95
2022-11-06T02:41:41.256Z,14.93
2022-11-06T02:44:11.587Z,15.13
2022-11-06T02:46:42.015Z,15.20
2022-11-06T02:49:15.694Z,14.52
2022-11-06T02:51:47.753Z,14.10
2022-11-06T02:54:16.203Z,13.07
2022-11-06T02:56:45.283Z,12.13
2022-11-06T02:59:16.757Z,13.18
2022-11-06T03:01:57.269Z,13.02
2022-11-06T03:04:46.275Z,13.70
2022-11-06T03:07:37.008Z,14.13
2022-11-06T03:10:05.460Z,13.63
2022-11-06T03:12:37.621Z,13.18
2022-11-06T03:15:26.248Z,13.00
2022-11-06T03:18:14.077Z,13.25
2022-11-06T03:20:46.214Z,12.65
2022-11-06T03:23:20.893Z,12.18
2022-11-06T03:26:04.154Z,13.02
2022-11-06T03:28:34.904Z,13.05
2022-11-06T03:31:13.125Z,13.75
2022-11-06T03:33:53.266Z,13.88
2022-11-06T03:36:23.956Z,14.23
2022-11-06T03:38:54.406Z,13.52
2022-11-06T03:41:36.836Z,13.57
2022-11-06T03:44:05.826Z,14.02
2022-11-06T03:46:37.369Z,13.55
2022-11-06T03:49:12.756Z,14.02
2022-11-06T03:51:52.561Z,13.63
2022-11-06T03:54:27.171Z,13.77
2022-11-06T03:57:31.175Z,12.57
2022-11-06T04:00:01.997Z,13.50
2022-11-06T04:02:43.740Z,12.95
2022-11-06T04:05:18.010Z,13.48
2022-11-06T04:08:07.018Z,13.20
2022-11-06T04:10:54.596Z,13.50
2022-11-06T04:13:40.876Z,13.85
2022-11-06T04:16:09.044Z,13.63
2022-11-06T04:18:35.977Z,14.20
2022-11-06T04:21:26.058Z,14.27
2022-11-06T04:24:14.739Z,13.63
2022-11-06T04:27:19.204Z,13.55
2022-11-06T04:29:57.104Z,16.13
2022-11-06T04:33:00.087Z,14.23
2022-11-06T04:35:34.248Z,14.73
2022-11-06T04:38:27.843Z,14.40
2022-11-06T04:41:04.067Z,15.35
2022-11-06T04:43:54.816Z,16.17
2022-11-06T04:46:31.904Z,15.25
2022-11-06T04:48:59.897Z,15.70
2022-11-06T04:51:30.331Z,14.85
2022-11-06T04:53:57.815Z,15.35
2022-11-06T04:56:34.024Z,14.18
2022-11-06T04:59:03.792Z,13.35
2022-11-06T05:01:30.908Z,14.63
2022-11-06T05:03:58.145Z,15.15
2022-11-06T05:06:29.721Z,14.38
2022-11-06T05:08:58.333Z,14.68
2022-11-06T05:11:25.352Z,14.30
2022-11-06T05:13:52.474Z,15.35
2022-11-06T05:16:19.485Z,15.82
2022-11-06T05:18:46.636Z,16.23
2022-11-06T05:21:31.808Z,16.73
2022-11-06T05:23:58.948Z,16.17
2022-11-06T05:26:25.849Z,16.77
2022-11-06T05:28:52.797Z,17.20
2022-11-06T05:31:19.581Z,20.15
2022-11-06T05:33:46.461Z,20.83
2022-11-06T05:36:13.488Z,21.42
2022-11-06T05:38:40.368Z,22.35
2022-11-06T05:41:07.551Z,22.65
2022-11-06T05:43:34.500Z,24.73
2022-11-06T05:46:01.656Z,25.13
2022-11-06T05:48:29.108Z,26.27
2022-11-06T05:51:06.691Z,23.25
2022-11-06T05:53:36.122Z,25.88
2022-11-06T05:56:03.771Z,22.58
2022-11-06T05:58:31.439Z,22.88
2022-11-06T06:00:59.296Z,24.27
2022-11-06T06:03:26.837Z,25.30
2022-11-06T06:05:54.056Z,23.45
2022-11-06T06:08:21.315Z,24.23
2022-11-06T06:10:48.454Z,24.30
2022-11-06T06:13:15.974Z,23.02
2022-11-06T06:15:43.459Z,23.17
2022-11-06T06:18:11.466Z,21.75
2022-11-06T06:20:39.256Z,21.55
2022-11-06T06:23:09.444Z,22.55
2022-11-06T06:25:36.934Z,22.63
2022-11-06T06:28:04.025Z,22.80
2022-11-06T06:30:31.712Z,22.08
2022-11-06T06:33:04.475Z,23.23
2022-11-06T06:35:31.630Z,22.48
2022-11-06T06:37:58.571Z,24.25
2022-11-06T06:40:26.927Z,23.77
2022-11-06T06:42:57.938Z,22.98
2022-11-06T06:45:25.848Z,24.92
2022-11-06T06:47:52.792Z,22.88
2022-11-06T06:50:20.031Z,24.95
2022-11-06T06:52:47.665Z,24.88
2022-11-06T06:55:14.893Z,27.17
2022-11-06T06:57:42.057Z,27.40
2022-11-06T07:00:09.843Z,27.88
2022-11-06T07:02:36.766Z,27.08
2022-11-06T07:05:03.900Z,25.52
2022-11-06T07:07:30.896Z,25.60
2022-11-06T07:09:57.858Z,25.40
2022-11-06T07:12:24.860Z,23.98
2022-11-06T07:14:51.877Z,25.25
2022-11-06T07:17:18.965Z,25.95
2022-11-06T07:19:45.975Z,26.98
2022-11-06T07:22:13.164Z,28.65
2022-11-06T07:24:40.174Z,28.98
2022-11-06T07:27:07.135Z,30.13
2022-11-06T07:29:34.236Z,28.67
2022-11-06T07:32:01.176Z,27.38
2022-11-06T07:34:28.253Z,25.33
2022-11-06T07:36:55.159Z,28.08
2022-11-06T07:39:22.211Z,27.48
2022-11-06T07:41:49.119Z,27.13
2022-11-06T07:44:16.400Z,26.02
2022-11-06T07:46:43.453Z,24.73
2022-11-06T07:49:10.660Z,26.00
2022-11-06T07:51:37.552Z,25.30
2022-11-06T07:54:04.866Z,25.70
2022-11-06T07:56:32.037Z,25.92
2022-11-06T07:58:59.243Z,25.98
2022-11-06T08:01:26.715Z,27.30
2022-11-06T08:03:54.057Z,30.02
2022-11-06T08:06:21.275Z,31.70
2022-11-06T08:08:48.319Z,29.65
2022-11-06T08:11:15.631Z,27.73
2022-11-06T08:13:42.856Z,27.08
2022-11-06T08:16:12.145Z,24.83
2022-11-06T08:18:39.615Z,23.77
2022-11-06T08:21:07.776Z,21.10
2022-11-06T08:23:36.316Z,22.33
2022-11-06T08:26:05.527Z,21.15
2022-11-06T08:28:32.605Z,21.05
2022-11-06T08:31:04.230Z,19.27
2022-11-06T08:33:31.227Z,16.98
2022-11-06T08:36:02.461Z,18.98
2022-11-06T08:38:29.516Z,19.15
2022-11-06T08:40:56.422Z,19.52
2022-11-06T08:43:26.585Z,17.38
2022-11-06T08:45:53.850Z,17.92
2022-11-06T08:48:20.923Z,17.15
2022-11-06T08:50:48.726Z,17.02
2022-11-06T08:53:16.086Z,15.95
2022-11-06T08:55:43.412Z,15.63
2022-11-06T08:58:10.623Z,14.55
2022-11-06T09:00:37.792Z,14.50
2022-11-06T09:03:10.678Z,14.00
2022-11-06T09:05:41.634Z,12.90
2022-11-06T09:08:09.813Z,11.90
2022-11-06T09:10:41.543Z,11.05
2022-11-06T09:13:12.150Z,9.55
2022-11-06T09:15:39.841Z,9.18
2022-11-06T09:18:07.077Z,8.38
2022-11-06T09:20:34.773Z,8.60
2022-11-06T09:23:06.604Z,8.73
2022-11-06T09:25:33.728Z,8.10
2022-11-06T09:28:00.732Z,7.25
2022-11-06T09:30:30.012Z,6.97
2022-11-06T09:32:59.856Z,6.13
2022-11-06T09:35:27.995Z,5.65
2022-11-06T09:37:55.031Z,5.90
2022-11-06T09:40:30.953Z,5.10
2022-11-06T09:44:04.661Z,4.60
2022-11-06T09:46:27.742Z,5.03
2022-11-06T09:49:01.805Z,4.13
2022-11-06T09:52:02.376Z,3.75
2022-11-06T09:54:35.230Z,4.10
2022-11-06T09:57:06.976Z,3.60
2022-11-06T09:59:37.092Z,3.80
2022-11-06T10:02:28.050Z,3.40
2022-11-06T10:05:02.970Z,3.45
2022-11-06T10:07:32.818Z,3.33
2022-11-06T10:10:00.996Z,3.20
2022-11-06T10:12:33.555Z,3.30
2022-11-06T10:15:26.800Z,3.60
2022-11-06T10:18:17.049Z,3.13
2022-11-06T10:21:10.981Z,3.53
2022-11-06T10:23:58.051Z,3.58
2022-11-06T10:26:40.836Z,3.65
2022-11-06T10:29:29.327Z,3.22
2022-11-06T10:32:12.747Z,3.90
2022-11-06T10:35:00.482Z,4.47
2022-11-06T10:37:33.979Z,3.50
2022-11-06T10:40:05.313Z,3.63
2022-11-06T10:42:38.509Z,4.10
2022-11-06T10:45:18.680Z,3.67
2022-11-06T10:47:51.031Z,4.20
2022-11-06T10:50:18.509Z,3.97
2022-11-06T10:53:08.581Z,4.03
2022-11-06T10:55:50.487Z,3.45
2022-11-06T10:58:20.045Z,3.63
2022-11-06T11:00:47.215Z,3.42
2022-11-06T11:03:22.715Z,3.45
2022-11-06T11:05:49.761Z,3.50
2022-11-06T11:08:36.564Z,3.28
2022-11-06T11:11:16.241Z,3.35
2022-11-06T11:13:46.180Z,3.03
2022-11-06T11:16:21.765Z,3.85
2022-11-06T11:18:50.525Z,3.25
2022-11-06T11:21:20.470Z,3.28
2022-11-06T11:24:08.675Z,3.30
2022-11-06T11:26:47.653Z,3.08
2022-11-06T11:29:23.159Z,3.13
2022-11-06T11:31:52.570Z,3.15
2022-11-06T11:34:22.901Z,2.90
2022-11-06T11:36:56.029Z,3.25
2022-11-06T11:39:29.918Z,3.30
2022-11-06T11:42:22.756Z,3.15
2022-11-06T11:45:16.242Z,3.00
2022-11-06T11:47:46.832Z,3.38
2022-11-06T11:50:20.224Z,3.50
2022-11-06T11:52:49.623Z,3.33
2022-11-06T11:55:22.560Z,3.53
2022-11-06T11:57:51.384Z,3.45
2022-11-06T12:00:19.945Z,3.38
2022-11-06T12:03:03.432Z,3.40
2022-11-06T12:05:36.196Z,3.70
2022-11-06T12:08:03.884Z,3.40
2022-11-06T12:10:38.604Z,3.10
2022-11-06T12:13:07.800Z,2.97
2022-11-06T12:15:53.237Z,3.03
2022-11-06T12:18:25.688Z,3.47
2022-11-06T12:21:04.280Z,3.53
2022-11-06T12:23:49.798Z,3.50
2022-11-06T12:26:27.282Z,3.47
2022-11-06T12:29:02.015Z,3.60
2022-11-06T12:31:53.312Z,3.53
2022-11-06T12:34:32.092Z,3.35
2022-11-06T12:37:19.731Z,3.67
2022-11-06T12:39:54.238Z,3.63
2022-11-06T12:42:22.870Z,3.15
2022-11-06T12:44:49.839Z,3.45
2022-11-06T12:47:46.529Z,3.53
2022-11-06T12:50:33.835Z,3.65
2022-11-06T12:53:10.814Z,3.90
2022-11-06T12:56:23.228Z,3.85
2022-11-06T12:59:01.790Z,3.63
2022-11-06T13:01:48.622Z,3.50
2022-11-06T13:04:48.562Z,3.80
2022-11-06T13:07:22.270Z,3.20
2022-11-06T13:09:52.287Z,3.38
2022-11-06T13:12:25.058Z,5.18
2022-11-06T13:15:13.227Z,6.72
2022-11-06T13:17:55.783Z,5.25
2022-11-06T13:20:47.471Z,4.75
2022-11-06T13:23:26.041Z,4.00
2022-11-06T13:26:13.044Z,4.35
2022-11-06T13:28:47.618Z,3.70
2022-11-06T13:31:18.762Z,4.25
2022-11-06T13:33:54.602Z,6.50
2022-11-06T13:36:22.074Z,4.40
2022-11-06T13:39:12.849Z,4.20
2022-11-06T13:41:40.008Z,3.63
2022-11-06T13:44:20.117Z,3.33
2022-11-06T13:46:57.064Z,3.40
2022-11-06T13:50:01.470Z,4.07
2022-11-06T13:52:51.928Z,4.18
2022-11-06T13:55:52.852Z,4.82
2022-11-06T13:58:29.491Z,4.82
2022-11-06T14:01:15.163Z,5.25
2022-11-06T14:04:03.832Z,4.15
2022-11-06T14:06:32.478Z,3.58
2022-11-06T14:09:05.211Z,3.80
2022-11-06T14:11:38.502Z,4.00
2022-11-06T14:14:08.205Z,4.00
2022-11-06T14:16:40.165Z,4.47
2022-11-06T14:22:25.293Z,5.28
2022-11-06T14:24:56.990Z,4.95
2022-11-06T14:27:28.839Z,4.45
2022-11-06T14:30:50.193Z,4.22
2022-11-06T14:33:52.954Z,3.92
2022-11-06T14:36:26.222Z,3.95
2022-11-06T14:38:54.504Z,4.45
2022-11-06T14:41:40.509Z,4.55
2022-11-06T14:44:27.276Z,4.10
2022-11-06T14:46:57.854Z,4.30
2022-11-06T14:49:37.215Z,5.75
2022-11-06T14:52:07.633Z,4.47
2022-11-06T14:54:37.655Z,4.78
2022-11-06T14:57:05.274Z,5.72
2022-11-06T14:59:40.976Z,4.75
2022-11-06T15:02:22.322Z,5.15
2022-11-06T15:04:53.754Z,5.00
2022-11-06T15:07:58.753Z,4.68
2022-11-06T15:10:43.802Z,4.93
2022-11-06T15:13:12.967Z,5.57
2022-11-06T15:15:42.379Z,5.10
2022-11-06T15:18:12.931Z,5.97
2022-11-06T15:20:41.313Z,5.65
2022-11-06T15:23:15.074Z,6.13
2022-11-06T15:26:03.017Z,6.25
2022-11-06T15:28:38.539Z,6.30
2022-11-06T15:31:12.772Z,6.63
2022-11-06T15:34:02.813Z,6.55
2022-11-06T15:36:34.529Z,8.43
2022-11-06T15:39:21.668Z,7.90
2022-11-06T15:41:49.525Z,8.10
2022-11-06T15:44:20.254Z,8.02
2022-11-06T15:46:58.538Z,7.85
2022-11-06T15:49:26.105Z,8.80
2022-11-06T15:51:57.149Z,9.10
2022-11-06T15:54:36.100Z,9.17
2022-11-06T15:57:07.772Z,8.25
2022-11-06T15:59:34.842Z,8.00
2022-11-06T16:02:06.182Z,7.75
2022-11-06T16:04:34.331Z,8.43
2022-11-06T16:07:07.190Z,8.57
2022-11-06T16:09:36.804Z,9.45
2022-11-06T16:12:05.877Z,8.68
2022-11-06T16:14:39.009Z,10.10
2022-11-06T16:17:31.250Z,9.30
2022-11-06T16:20:00.925Z,8.65
2022-11-06T16:22:31.395Z,9.00
2022-11-06T16:25:02.806Z,8.98
2022-11-06T16:27:37.433Z,9.20
2022-11-06T16:30:06.940Z,8.82
2022-11-06T16:32:46.527Z,8.73
2022-11-06T16:35:34.321Z,8.90
2022-11-06T16:38:41.175Z,8.90
2022-11-06T16:41:33.647Z,11.07
2022-11-06T16:44:30.756Z,12.43
2022-11-06T16:47:21.227Z,13.57
2022-11-06T16:49:55.157Z,11.55
2022-11-06T16:52:25.960Z,12.98
2022-11-06T16:55:30.912Z,14.65
2022-11-06T16:57:59.478Z,12.00
2022-11-06T17:00:29.394Z,20.10
2022-11-06T17:02:59.562Z,15.95
2022-11-06T17:05:34.369Z,13.52
2022-11-06T17:08:33.258Z,13.80
2022-11-06T17:11:20.843Z,16.83
2022-11-06T17:13:49.977Z,12.20
2022-11-06T17:16:22.398Z,17.50
2022-11-06T17:18:49.774Z,11.38
2022-11-06T17:21:25.094Z,11.48
2022-11-06T17:23:53.159Z,11.30
2022-11-06T17:26:25.694Z,10.70
2022-11-06T17:28:52.869Z,10.40
2022-11-06T17:31:20.687Z,11.02
2022-11-06T17:33:48.175Z,11.18
2022-11-06T17:36:20.849Z,11.25
2022-11-06T17:38:48.313Z,9.25
2022-11-06T17:41:31.216Z,10.75
2022-11-06T17:44:04.738Z,10.27
2022-11-06T17:46:34.928Z,10.50
2022-11-06T17:49:02.701Z,11.98
2022-11-06T17:51:49.189Z,11.77
2022-11-06T17:54:28.688Z,10.98
2022-11-06T17:56:57.032Z,10.82
2022-11-06T17:59:24.529Z,11.15
2022-11-06T18:01:52.138Z,11.00
2022-11-06T18:04:23.312Z,11.35
2022-11-06T18:06:52.437Z,13.60
2022-11-06T18:09:21.047Z,11.65
2022-11-06T18:11:52.668Z,12.23
2022-11-06T18:14:20.658Z,14.10
2022-11-06T18:16:48.342Z,12.25
2022-11-06T18:19:18.333Z,12.13
2022-11-06T18:21:45.663Z,14.43
2022-11-06T18:24:12.934Z,13.32
2022-11-06T18:26:40.325Z,13.00
2022-11-06T18:29:08.464Z,12.50
2022-11-06T18:31:36.043Z,12.85
2022-11-06T18:34:03.867Z,13.15
2022-11-06T18:36:32.545Z,13.43
2022-11-06T18:38:59.624Z,13.82
2022-11-06T18:41:27.065Z,13.98
2022-11-06T18:43:58.324Z,13.60
2022-11-06T18:46:30.185Z,15.20
2022-11-06T18:48:58.034Z,15.95
2022-11-06T18:51:36.051Z,15.20
2022-11-06T18:54:06.659Z,15.40
2022-11-06T18:56:36.257Z,15.80
2022-11-06T18:59:07.820Z,16.30
2022-11-06T19:01:35.555Z,15.77
2022-11-06T19:04:04.321Z,15.13
2022-11-06T19:06:31.730Z,16.45
2022-11-06T19:08:59.192Z,14.82
2022-11-06T19:11:26.514Z,16.20
2022-11-06T19:13:53.827Z,15.32
2022-11-06T19:16:21.126Z,15.15
2022-11-06T19:21:30.506Z,14.48
2022-11-06T19:24:04.424Z,16.33
2022-11-06T19:26:33.716Z,15.45
2022-11-06T19:29:01.373Z,15.88
2022-11-06T19:31:29.815Z,16.25
2022-11-06T19:33:58.193Z,15.77
2022-11-06T19:36:25.682Z,15.65
2022-11-06T19:38:53.405Z,15.60
2022-11-06T19:41:21.070Z,16.90
2022-11-06T19:43:48.432Z,16.77
2022-11-06T19:46:23.403Z,16.52
2022-11-06T19:48:52.011Z,16.10
2022-11-06T19:51:19.378Z,16.77
2022-11-06T19:53:46.757Z,17.08
2022-11-06T19:56:16.695Z,17.75
2022-11-06T19:58:44.091Z,18.25
2022-11-06T20:01:15.184Z,18.05
2022-11-06T20:03:42.614Z,18.63
2022-11-06T20:06:10.192Z,19.05
2022-11-06T20:08:39.027Z,18.63
2022-11-06T20:11:08.796Z,17.20
2022-11-06T20:13:39.287Z,19.73
2022-11-06T20:16:08.566Z,18.63
2022-11-06T20:18:35.978Z,18.85
2022-11-06T20:21:05.415Z,18.85
2022-11-06T20:23:32.895Z,18.67
2022-11-06T20:26:00.108Z,17.77
2022-11-06T20:28:27.073Z,18.70
2022-11-06T20:30:54.218Z,18.85
2022-11-06T20:33:21.433Z,18.48
2022-11-06T20:35:48.408Z,18.00
2022-11-06T20:38:15.964Z,19.23
2022-11-06T20:40:43.504Z,19.02
2022-11-06T20:43:10.918Z,19.77
2022-11-06T20:45:38.066Z,18.65
2022-11-06T20:48:06.314Z,18.08
2022-11-06T20:50:34.282Z,19.73
2022-11-06T20:53:01.536Z,18.45
2022-11-06T20:55:29.203Z,17.92
2022-11-06T20:57:56.279Z,18.55
2022-11-06T21:00:23.634Z,18.75
2022-11-06T21:02:54.288Z,18.08
2022-11-06T21:05:23.532Z,18.45
2022-11-06T21:07:50.604Z,18.65
2022-11-06T21:10:17.908Z,17.63
2022-11-06T21:12:45.043Z,17.63
2022-11-06T21:15:12.483Z,17.10
2022-11-06T21:17:43.184Z,16.88
2022-11-06T21:20:11.274Z,16.70
2022-11-06T21:22:38.315Z,16.10
2022-11-06T21:25:05.616Z,15.60
2022-11-06T21:27:32.871Z,16.90
2022-11-06T21:29:59.801Z,16.33
2022-11-06T21:32:27.182Z,15.70
2022-11-06T21:34:54.222Z,15.43
2022-11-06T21:37:32.954Z,14.90
2022-11-06T21:40:00.772Z,15.38
2022-11-06T21:42:27.905Z,14.77
2022-11-06T21:44:54.807Z,15.68
2022-11-06T21:47:21.915Z,15.50
2022-11-06T21:49:54.183Z,15.43
2022-11-06T21:52:40.623Z,13.70
2022-11-06T21:55:27.908Z,15.70
2022-11-06T21:57:55.121Z,15.10
2022-11-06T22:00:22.027Z,15.18
2022-11-06T22:02:51.278Z,14.98
2022-11-06T22:05:18.382Z,15.68
2022-11-06T22:07:45.549Z,15.43
2022-11-06T22:10:12.818Z,16.15
2022-11-06T22:12:39.859Z,15.35
2022-11-06T22:15:07.589Z,16.02
2022-11-06T22:17:34.674Z,16.05
2022-11-06T22:20:01.654Z,16.02
2022-11-06T22:22:28.679Z,16.65
2022-11-06T22:24:55.758Z,16.40
2022-11-06T22:27:22.660Z,17.45
2022-11-06T22:29:49.757Z,16.42
2022-11-06T22:32:16.857Z,16.33
2022-11-06T22:34:44.052Z,15.32
2022-11-06T22:37:11.254Z,15.73
2022-11-06T22:39:38.252Z,15.57
2022-11-06T22:42:05.480Z,15.52
2022-11-06T22:44:33.597Z,14.77
2022-11-06T22:47:01.310Z,15.13
2022-11-06T22:49:28.636Z,14.88
2022-11-06T22:51:55.659Z,15.45
2022-11-06T22:54:22.925Z,15.38
2022-11-06T22:56:50.128Z,16.08
2022-11-06T22:59:17.246Z,16.35
2022-11-06T23:01:44.600Z,15.30
2022-11-06T23:04:17.114Z,14.85
2022-11-06T23:06:44.908Z,15.52
2022-11-06T23:09:12.178Z,15.70
2022-11-06T23:11:39.245Z,15.80
2022-11-06T23:14:09.075Z,15.43
2022-11-06T23:16:55.410Z,15.07
2022-11-06T23:19:22.838Z,14.90
2022-11-06T23:21:49.985Z,14.45
2022-11-06T23:24:17.115Z,15.30
2022-11-06T23:26:44.754Z,15.90
2022-11-06T23:29:12.027Z,14.65
2022-11-06T23:31:39.037Z,13.85
2022-11-06T23:34:06.080Z,13.88
2022-11-06T23:36:33.244Z,13.55
2022-11-06T23:39:00.277Z,12.40
2022-11-06T23:41:46.269Z,11.93
2022-11-06T23:44:33.295Z,11.52
2022-11-06T23:47:00.720Z,11.52
2022-11-06T23:49:27.626Z,12.10
2022-11-06T23:51:54.683Z,11.88
2022-11-06T23:54:21.637Z,10.10
2022-11-06T23:56:48.738Z,10.93
2022-11-06T23:59:15.887Z,10.88
